createdAt,value
2019-03-23T00:01:14.386Z,6.00
2019-03-23T00:03:41.231Z,6.00
2019-03-23T00:06:08.073Z,5.90
2019-03-23T00:08:34.927Z,5.90
2019-03-23T00:11:01.759Z,5.80
2019-03-23T00:13:28.603Z,5.70
2019-03-23T00:15:55.462Z,5.70
2019-03-23T00:18:22.289Z,5.70
2019-03-23T00:20:49.139Z,5.70
2019-03-23T00:23:15.977Z,5.60
2019-03-23T00:25:42.819Z,5.70
2019-03-23T00:28:09.663Z,5.60
2019-03-23T00:30:36.814Z,5.60
2019-03-23T00:33:03.660Z,5.60
2019-03-23T00:35:30.500Z,5.50
2019-03-23T00:37:57.344Z,5.40
2019-03-23T00:40:24.188Z,5.40
2019-03-23T00:42:51.338Z,5.40
2019-03-23T00:45:18.183Z,5.40
2019-03-23T00:47:45.641Z,5.40
2019-03-23T00:50:13.034Z,5.40
2019-03-23T00:52:39.942Z,5.30
2019-03-23T00:55:07.398Z,5.30
2019-03-23T00:57:34.243Z,5.20
2019-03-23T01:00:01.086Z,5.20
2019-03-23T01:02:27.930Z,5.30
2019-03-23T01:04:54.808Z,5.30
2019-03-23T01:07:21.617Z,5.20
2019-03-23T01:09:48.459Z,5.20
2019-03-23T01:12:15.609Z,5.10
2019-03-23T01:14:42.505Z,5.20
2019-03-23T01:17:09.303Z,5.20
2019-03-23T01:19:36.141Z,5.10
2019-03-23T01:22:02.983Z,5.00
2019-03-23T01:24:29.825Z,4.90
2019-03-23T01:26:56.978Z,4.90
2019-03-23T01:29:23.820Z,4.90
2019-03-23T01:31:50.665Z,4.80
2019-03-23T01:34:17.508Z,4.80
2019-03-23T01:36:44.354Z,4.80
2019-03-23T01:39:11.195Z,4.90
2019-03-23T01:41:38.039Z,4.90
2019-03-23T01:44:04.880Z,4.80
2019-03-23T01:46:31.730Z,4.80
2019-03-23T01:48:58.875Z,4.80
2019-03-23T01:51:25.718Z,4.80
2019-03-23T01:53:52.563Z,4.90
2019-03-23T01:56:19.405Z,4.80
2019-03-23T01:58:46.250Z,4.80
2019-03-23T02:01:13.401Z,4.80
2019-03-23T02:03:40.242Z,4.70
2019-03-23T02:06:07.086Z,4.70
2019-03-23T02:08:33.929Z,4.70
2019-03-23T02:11:00.772Z,4.70
2019-03-23T02:13:27.615Z,4.70
2019-03-23T02:15:54.461Z,4.60
2019-03-23T02:18:21.613Z,4.60
2019-03-23T02:20:48.925Z,4.50
2019-03-23T02:23:15.914Z,4.40
2019-03-23T02:25:43.063Z,4.40
2019-03-23T02:28:09.904Z,4.40
2019-03-23T02:30:37.056Z,4.40
2019-03-23T02:33:04.208Z,4.40
2019-03-23T02:35:31.050Z,4.40
2019-03-23T02:37:57.910Z,4.40
2019-03-23T02:40:24.773Z,4.40
2019-03-23T02:42:51.580Z,4.40
2019-03-23T02:45:19.038Z,4.40
2019-03-23T02:47:45.888Z,4.40
2019-03-23T02:50:12.789Z,4.30
2019-03-23T02:52:39.572Z,4.30
2019-03-23T02:55:08.145Z,4.30
2019-03-23T02:57:35.413Z,4.20
2019-03-23T03:00:04.399Z,4.10
2019-03-23T03:02:31.242Z,4.10
2019-03-23T03:04:58.097Z,4.10
2019-03-23T03:07:24.932Z,4.10
2019-03-23T03:09:51.772Z,4.00
2019-03-23T03:12:18.616Z,4.00
2019-03-23T03:14:45.459Z,4.00
2019-03-23T03:17:12.304Z,4.00
2019-03-23T03:19:39.147Z,3.80
2019-03-23T03:22:05.990Z,3.70
2019-03-23T03:24:32.835Z,3.70
2019-03-23T03:26:59.677Z,3.70
2019-03-23T03:29:26.532Z,3.80
2019-03-23T03:31:53.671Z,3.80
2019-03-23T03:34:20.515Z,3.80
2019-03-23T03:36:47.357Z,3.80
2019-03-23T03:39:14.210Z,3.80
2019-03-23T03:41:41.044Z,3.80
2019-03-23T03:44:07.886Z,3.80
2019-03-23T03:46:34.732Z,3.70
2019-03-23T03:49:11.806Z,3.60
2019-03-23T03:51:30.265Z,3.70
2019-03-23T03:53:57.414Z,3.60
2019-03-23T03:56:24.260Z,3.70
2019-03-23T03:58:51.105Z,3.70
2019-03-23T04:01:18.260Z,3.70
2019-03-23T04:03:45.098Z,3.70
2019-03-23T04:06:11.935Z,3.70
2019-03-23T04:08:39.107Z,3.70
2019-03-23T04:11:06.239Z,3.60
2019-03-23T04:13:33.079Z,3.70
2019-03-23T04:15:59.924Z,3.70
2019-03-23T04:18:26.768Z,3.60
2019-03-23T04:20:56.974Z,3.70
2019-03-23T04:23:23.849Z,3.50
2019-03-23T04:25:50.679Z,3.50
2019-03-23T04:28:17.519Z,3.40
2019-03-23T04:30:44.670Z,3.40
2019-03-23T04:33:11.515Z,3.40
2019-03-23T04:35:38.357Z,3.40
2019-03-23T04:38:05.511Z,3.40
2019-03-23T04:40:32.353Z,3.40
2019-03-23T04:42:59.194Z,3.40
2019-03-23T04:45:26.037Z,3.40
2019-03-23T04:47:52.880Z,3.50
2019-03-23T04:50:19.779Z,3.50
2019-03-23T04:52:46.877Z,3.50
2019-03-23T04:55:14.025Z,3.40
2019-03-23T04:57:41.183Z,3.50
2019-03-23T05:00:11.398Z,3.40
2019-03-23T05:02:38.242Z,3.40
2019-03-23T05:05:05.908Z,3.50
2019-03-23T05:07:32.850Z,3.50
2019-03-23T05:09:59.696Z,3.40
2019-03-23T05:12:26.537Z,3.40
2019-03-23T05:14:53.421Z,3.40
2019-03-23T05:17:20.224Z,3.30
2019-03-23T05:19:47.068Z,3.40
2019-03-23T05:22:14.221Z,3.40
2019-03-23T05:24:41.061Z,3.40
2019-03-23T05:27:07.905Z,3.40
2019-03-23T05:29:34.784Z,3.30
2019-03-23T05:32:01.592Z,3.30
2019-03-23T05:34:28.436Z,3.30
2019-03-23T05:36:55.247Z,3.20
2019-03-23T05:39:22.123Z,3.30
2019-03-23T05:41:48.966Z,3.30
2019-03-23T05:44:15.852Z,3.20
2019-03-23T05:46:42.652Z,3.20
2019-03-23T05:49:09.495Z,3.20
2019-03-23T05:51:36.338Z,3.30
2019-03-23T05:54:03.182Z,3.20
2019-03-23T05:56:30.026Z,3.20
2019-03-23T05:58:56.869Z,3.20
2019-03-23T06:01:23.712Z,3.20
2019-03-23T06:03:50.557Z,3.20
2019-03-23T06:06:17.399Z,3.30
2019-03-23T06:08:54.223Z,3.30
2019-03-23T06:11:12.929Z,3.30
2019-03-23T06:13:40.080Z,3.40
2019-03-23T06:16:06.926Z,3.40
2019-03-23T06:18:33.766Z,3.40
2019-03-23T06:21:00.610Z,3.40
2019-03-23T06:23:27.453Z,3.30
2019-03-23T06:25:54.297Z,3.20
2019-03-23T06:28:21.447Z,3.20
2019-03-23T06:30:48.293Z,3.30
2019-03-23T06:33:15.137Z,3.30
2019-03-23T06:35:41.984Z,3.40
2019-03-23T06:38:08.821Z,3.40
2019-03-23T06:40:35.664Z,3.40
2019-03-23T06:43:02.507Z,3.40
2019-03-23T06:45:29.262Z,3.40
2019-03-23T06:47:56.198Z,3.50
2019-03-23T06:50:23.041Z,3.50
2019-03-23T06:52:49.767Z,3.60
2019-03-23T06:55:16.724Z,3.60
2019-03-23T06:57:43.875Z,3.60
2019-03-23T07:00:13.485Z,3.70
2019-03-23T07:02:40.328Z,3.80
2019-03-23T07:05:08.320Z,3.80
2019-03-23T07:07:35.244Z,3.90
2019-03-23T07:10:07.003Z,4.00
2019-03-23T07:12:34.151Z,4.10
2019-03-23T07:15:00.995Z,4.10
2019-03-23T07:17:27.837Z,4.20
2019-03-23T07:19:54.734Z,4.30
2019-03-23T07:22:21.437Z,4.40
2019-03-23T07:24:48.369Z,4.50
2019-03-23T07:27:15.212Z,4.60
2019-03-23T07:29:42.057Z,4.70
2019-03-23T07:32:08.903Z,4.80
2019-03-23T07:34:35.747Z,4.90
2019-03-23T07:37:02.596Z,5.00
2019-03-23T07:39:30.469Z,5.20
2019-03-23T07:41:57.808Z,5.30
2019-03-23T07:44:24.654Z,5.40
2019-03-23T07:46:51.497Z,5.60
2019-03-23T07:49:18.338Z,5.70
2019-03-23T07:51:45.181Z,5.80
2019-03-23T07:54:12.026Z,5.90
2019-03-23T07:56:39.176Z,6.10
2019-03-23T07:59:06.019Z,6.30
2019-03-23T08:01:32.863Z,6.40
2019-03-23T08:04:00.013Z,6.50
2019-03-23T08:06:26.860Z,6.60
2019-03-23T08:08:53.700Z,6.70
2019-03-23T08:11:20.544Z,6.80
2019-03-23T08:13:47.386Z,6.90
2019-03-23T08:16:14.167Z,7.10
2019-03-23T08:18:41.073Z,7.20
2019-03-23T08:21:07.852Z,7.30
2019-03-23T08:23:34.453Z,7.40
2019-03-23T08:26:01.296Z,7.50
2019-03-23T08:28:27.833Z,7.70
2019-03-23T08:30:54.368Z,7.70
2019-03-23T08:33:21.212Z,7.90
2019-03-23T08:35:48.056Z,8.10
2019-03-23T08:38:14.898Z,8.10
2019-03-23T08:40:41.472Z,8.20
2019-03-23T08:43:08.008Z,8.30
2019-03-23T08:45:34.823Z,8.40
2019-03-23T08:48:01.443Z,8.50
2019-03-23T08:50:27.887Z,8.60
2019-03-23T08:52:54.736Z,8.70
2019-03-23T08:55:22.007Z,8.80
2019-03-23T08:57:49.032Z,8.90
2019-03-23T09:00:15.568Z,9.00
2019-03-23T09:02:42.139Z,9.20
2019-03-23T09:05:08.643Z,9.30
2019-03-23T09:07:35.486Z,9.40
2019-03-23T09:10:03.326Z,9.50
2019-03-23T09:12:29.785Z,9.60
2019-03-23T09:14:56.322Z,9.80
2019-03-23T09:17:22.896Z,9.90
2019-03-23T09:19:49.394Z,10.00
2019-03-23T09:22:15.935Z,10.10
2019-03-23T09:24:42.780Z,10.30
2019-03-23T09:27:09.309Z,10.50
2019-03-23T09:29:36.153Z,10.60
2019-03-23T09:32:02.997Z,10.70
2019-03-23T09:34:29.533Z,10.80
2019-03-23T09:36:56.081Z,11.00
2019-03-23T09:39:22.914Z,11.10
2019-03-23T09:41:49.452Z,11.20
2019-03-23T09:44:16.294Z,11.30
2019-03-23T09:46:43.136Z,11.50
2019-03-23T09:49:09.673Z,11.50
2019-03-23T09:51:36.207Z,11.60
2019-03-23T09:54:03.055Z,11.70
2019-03-23T09:56:29.588Z,11.80
2019-03-23T09:58:56.432Z,11.90
2019-03-23T10:01:23.278Z,12.00
2019-03-23T10:03:49.812Z,12.20
2019-03-23T10:06:16.353Z,12.30
2019-03-23T10:08:43.189Z,12.40
2019-03-23T10:11:09.726Z,12.50
2019-03-23T10:13:36.262Z,12.60
2019-03-23T10:16:03.104Z,12.70
2019-03-23T10:18:29.951Z,12.80
2019-03-23T10:20:56.485Z,12.90
2019-03-23T10:23:23.328Z,13.10
2019-03-23T10:25:50.172Z,13.10
2019-03-23T10:28:16.709Z,13.20
2019-03-23T10:30:43.550Z,13.30
2019-03-23T10:33:10.088Z,13.40
2019-03-23T10:35:36.930Z,13.60
2019-03-23T10:38:03.774Z,13.70
2019-03-23T10:40:32.761Z,13.80
2019-03-23T10:42:58.660Z,13.80
2019-03-23T10:45:25.225Z,14.00
2019-03-23T10:47:51.870Z,14.10
2019-03-23T10:50:18.606Z,14.20
2019-03-23T10:52:45.449Z,14.20
2019-03-23T10:55:11.985Z,14.20
2019-03-23T10:57:38.522Z,14.20
2019-03-23T11:00:08.436Z,14.20
2019-03-23T11:02:34.972Z,14.30
2019-03-23T11:05:01.509Z,14.50
2019-03-23T11:07:28.352Z,14.60
2019-03-23T11:09:54.888Z,14.70
2019-03-23T11:12:21.430Z,14.80
2019-03-23T11:14:48.268Z,15.00
2019-03-23T11:17:14.805Z,15.00
2019-03-23T11:19:41.354Z,15.10
2019-03-23T11:22:08.183Z,15.30
2019-03-23T11:24:34.720Z,15.30
2019-03-23T11:27:01.563Z,15.40
2019-03-23T11:29:28.409Z,15.50
2019-03-23T11:31:55.353Z,15.50
2019-03-23T11:34:22.094Z,15.60
2019-03-23T11:36:48.948Z,15.80
2019-03-23T11:39:15.783Z,15.90
2019-03-23T11:41:42.623Z,16.00
2019-03-23T11:44:09.466Z,16.10
2019-03-23T11:46:36.310Z,16.20
2019-03-23T11:49:03.154Z,16.30
2019-03-23T11:51:30.304Z,16.40
2019-03-23T11:53:57.148Z,16.60
2019-03-23T11:56:23.992Z,16.70
2019-03-23T11:58:51.141Z,16.80
2019-03-23T12:01:18.024Z,16.90
2019-03-23T12:03:44.830Z,17.00
2019-03-23T12:06:11.672Z,17.00
2019-03-23T12:08:38.517Z,17.00
2019-03-23T12:11:05.360Z,17.10
2019-03-23T12:13:32.202Z,17.20
2019-03-23T12:15:59.045Z,17.30
2019-03-23T12:18:25.889Z,17.40
2019-03-23T12:20:52.731Z,17.60
2019-03-23T12:23:19.575Z,17.60
2019-03-23T12:25:46.420Z,17.60
2019-03-23T12:28:13.569Z,17.60
2019-03-23T12:30:40.412Z,17.70
2019-03-23T12:33:07.259Z,17.80
2019-03-23T12:35:34.409Z,17.90
2019-03-23T12:38:01.256Z,18.00
2019-03-23T12:40:28.095Z,18.00
2019-03-23T12:42:54.938Z,18.20
2019-03-23T12:45:21.780Z,18.30
2019-03-23T12:47:48.623Z,18.40
2019-03-23T12:50:15.467Z,18.50
2019-03-23T12:52:42.312Z,18.60
2019-03-23T12:55:09.461Z,18.60
2019-03-23T12:57:36.304Z,18.60
2019-03-23T13:00:08.987Z,18.70
2019-03-23T13:02:36.442Z,18.70
2019-03-23T13:05:06.051Z,18.90
2019-03-23T13:07:32.894Z,19.00
2019-03-23T13:09:59.738Z,19.00
2019-03-23T13:12:26.615Z,19.10
2019-03-23T13:14:53.468Z,19.10
2019-03-23T13:17:20.267Z,18.90
2019-03-23T13:19:47.148Z,19.00
2019-03-23T13:22:13.954Z,19.10
2019-03-23T13:24:40.798Z,19.20
2019-03-23T13:27:07.640Z,19.40
2019-03-23T13:29:34.484Z,19.50
2019-03-23T13:32:01.328Z,19.50
2019-03-23T13:34:28.478Z,19.40
2019-03-23T13:36:55.321Z,19.50
2019-03-23T13:39:22.166Z,19.60
2019-03-23T13:41:49.622Z,19.70
2019-03-23T13:44:16.773Z,19.90
2019-03-23T13:46:43.617Z,19.90
2019-03-23T13:49:10.463Z,19.90
2019-03-23T13:51:37.304Z,20.00
2019-03-23T13:54:04.146Z,20.10
2019-03-23T13:56:30.990Z,20.10
2019-03-23T13:58:57.834Z,20.30
2019-03-23T14:01:24.679Z,20.40
2019-03-23T14:03:51.520Z,20.50
2019-03-23T14:06:18.364Z,20.40
2019-03-23T14:08:45.207Z,20.40
2019-03-23T14:11:12.051Z,20.60
2019-03-23T14:13:38.896Z,20.50
2019-03-23T14:16:05.737Z,20.60
2019-03-23T14:18:32.616Z,20.60
2019-03-23T14:20:59.427Z,20.50
2019-03-23T14:23:26.269Z,20.70
2019-03-23T14:25:53.111Z,20.70
2019-03-23T14:28:19.955Z,20.80
2019-03-23T14:30:46.800Z,20.90
2019-03-23T14:33:13.641Z,20.90
2019-03-23T14:35:40.484Z,21.00
2019-03-23T14:38:07.365Z,21.10
2019-03-23T14:40:34.171Z,21.20
2019-03-23T14:43:01.014Z,21.10
2019-03-23T14:45:27.858Z,21.10
2019-03-23T14:47:54.702Z,21.10
2019-03-23T14:50:21.548Z,21.10
2019-03-23T14:52:48.389Z,21.00
2019-03-23T14:55:15.233Z,21.20
2019-03-23T14:57:42.075Z,21.30
2019-03-23T15:00:09.703Z,21.30
2019-03-23T15:02:36.686Z,21.30
2019-03-23T15:05:05.859Z,21.40
2019-03-23T15:07:32.828Z,21.50
2019-03-23T15:09:59.672Z,21.60
2019-03-23T15:12:26.514Z,21.50
2019-03-23T15:14:53.358Z,21.60
2019-03-23T15:17:20.509Z,21.60
2019-03-23T15:19:47.358Z,21.80
2019-03-23T15:22:14.201Z,21.80
2019-03-23T15:24:41.046Z,22.10
2019-03-23T15:27:07.889Z,23.50
2019-03-23T15:29:34.729Z,26.00
2019-03-23T15:32:01.574Z,27.70
2019-03-23T15:34:28.413Z,28.80
2019-03-23T15:36:55.256Z,29.10
2019-03-23T15:39:22.101Z,29.90
2019-03-23T15:41:48.636Z,30.00
2019-03-23T15:44:15.485Z,29.70
2019-03-23T15:46:42.015Z,29.50
2019-03-23T15:49:08.867Z,29.30
2019-03-23T15:51:35.702Z,29.10
2019-03-23T15:54:02.853Z,28.80
2019-03-23T15:56:29.698Z,28.40
2019-03-23T15:58:56.540Z,28.10
2019-03-23T16:01:23.386Z,27.80
2019-03-23T16:03:50.227Z,27.30
2019-03-23T16:06:17.299Z,26.10
2019-03-23T16:08:44.223Z,24.90
2019-03-23T16:11:11.064Z,24.30
2019-03-23T16:13:37.908Z,23.60
2019-03-23T16:16:04.750Z,23.20
2019-03-23T16:18:31.594Z,22.70
2019-03-23T16:20:58.438Z,22.20
2019-03-23T16:23:25.281Z,21.70
2019-03-23T16:25:52.124Z,21.20
2019-03-23T16:28:18.967Z,20.80
2019-03-23T16:30:45.811Z,20.60
2019-03-23T16:33:12.695Z,20.20
2019-03-23T16:35:39.499Z,20.00
2019-03-23T16:38:06.648Z,20.00
2019-03-23T16:40:33.495Z,19.90
2019-03-23T16:43:00.335Z,19.80
2019-03-23T16:45:27.487Z,19.70
2019-03-23T16:47:55.115Z,19.60
2019-03-23T16:50:22.094Z,19.40
2019-03-23T16:52:48.938Z,19.20
2019-03-23T16:55:15.782Z,19.10
2019-03-23T16:57:42.668Z,19.00
2019-03-23T17:00:19.299Z,18.80
2019-03-23T17:02:46.142Z,18.60
2019-03-23T17:05:14.215Z,18.50
2019-03-23T17:07:41.365Z,18.30
2019-03-23T17:10:09.575Z,18.20
2019-03-23T17:12:36.587Z,18.00
2019-03-23T17:15:05.892Z,17.90
2019-03-23T17:17:32.424Z,17.70
2019-03-23T17:19:59.268Z,17.50
2019-03-23T17:22:26.112Z,17.30
2019-03-23T17:24:52.954Z,17.00
2019-03-23T17:27:19.797Z,16.90
2019-03-23T17:29:46.647Z,16.70
2019-03-23T17:32:13.485Z,16.60
2019-03-23T17:34:40.329Z,16.30
2019-03-23T17:37:07.172Z,16.10
2019-03-23T17:39:34.156Z,15.90
2019-03-23T17:42:01.171Z,15.50
2019-03-23T17:44:28.010Z,15.40
2019-03-23T17:46:54.545Z,15.10
2019-03-23T17:49:21.082Z,15.00
2019-03-23T17:51:47.661Z,14.90
2019-03-23T17:54:14.154Z,14.70
2019-03-23T17:56:40.690Z,14.70
2019-03-23T17:59:07.556Z,14.60
2019-03-23T18:01:34.072Z,14.60
2019-03-23T18:04:01.835Z,14.40
2019-03-23T18:06:28.682Z,14.20
2019-03-23T18:08:55.535Z,14.00
2019-03-23T18:11:22.365Z,13.90
2019-03-23T18:13:49.210Z,13.80
2019-03-23T18:16:16.054Z,13.70
2019-03-23T18:18:42.592Z,13.60
2019-03-23T18:21:09.165Z,13.60
2019-03-23T18:23:35.660Z,13.60
2019-03-23T18:26:02.196Z,13.50
2019-03-23T18:28:29.041Z,13.40
2019-03-23T18:30:55.589Z,13.20
2019-03-23T18:33:22.112Z,13.20
2019-03-23T18:35:48.688Z,13.10
2019-03-23T18:38:15.185Z,13.10
2019-03-23T18:40:41.722Z,13.00
2019-03-23T18:43:08.567Z,12.90
2019-03-23T18:45:35.407Z,12.80
2019-03-23T18:48:01.879Z,12.70
2019-03-23T18:50:28.479Z,12.50
2019-03-23T18:52:55.018Z,12.40
2019-03-23T18:55:21.556Z,12.30
2019-03-23T18:57:48.123Z,12.20
2019-03-23T19:00:16.468Z,12.10
2019-03-23T19:02:42.940Z,12.10
2019-03-23T19:05:29.148Z,12.10
2019-03-23T19:07:55.737Z,11.90
2019-03-23T19:10:22.276Z,11.90
2019-03-23T19:12:49.119Z,11.80
2019-03-23T19:15:15.653Z,11.70
2019-03-23T19:17:42.496Z,11.60
2019-03-23T19:20:09.340Z,11.40
2019-03-23T19:22:36.191Z,11.40
2019-03-23T19:25:03.967Z,11.40
2019-03-23T19:27:30.791Z,11.40
2019-03-23T19:29:57.338Z,11.30
2019-03-23T19:32:24.171Z,11.30
2019-03-23T19:34:51.014Z,11.20
2019-03-23T19:37:17.551Z,11.10
2019-03-23T19:39:44.395Z,11.00
2019-03-23T19:42:11.244Z,11.00
2019-03-23T19:44:38.390Z,11.00
2019-03-23T19:47:05.234Z,10.90
2019-03-23T19:49:32.075Z,10.80
2019-03-23T19:51:58.920Z,10.80
2019-03-23T19:54:25.764Z,10.70
2019-03-23T19:56:52.605Z,10.70
2019-03-23T19:59:19.449Z,10.60
2019-03-23T20:01:46.292Z,10.50
2019-03-23T20:04:13.136Z,10.50
2019-03-23T20:06:39.979Z,10.50
2019-03-23T20:09:08.051Z,10.40
2019-03-23T20:11:34.895Z,10.30
2019-03-23T20:14:01.738Z,10.30
2019-03-23T20:16:28.584Z,10.30
2019-03-23T20:18:55.464Z,10.20
2019-03-23T20:21:22.268Z,10.10
2019-03-23T20:23:51.162Z,10.10
2019-03-23T20:26:17.723Z,10.10
2019-03-23T20:28:44.647Z,10.00
2019-03-23T20:31:11.486Z,9.90
2019-03-23T20:33:38.328Z,9.90
2019-03-23T20:36:05.172Z,9.80
2019-03-23T20:38:32.015Z,9.70
2019-03-23T20:40:59.166Z,9.80
2019-03-23T20:43:26.009Z,9.70
2019-03-23T20:45:52.887Z,9.70
2019-03-23T20:48:19.736Z,9.70
2019-03-23T20:50:46.847Z,9.70
2019-03-23T20:53:14.920Z,9.60
2019-03-23T20:55:41.762Z,9.50
2019-03-23T20:58:08.607Z,9.50
2019-03-23T21:00:35.449Z,9.50
2019-03-23T21:03:02.294Z,9.40
2019-03-23T21:05:33.877Z,9.30
2019-03-23T21:07:57.826Z,9.30
2019-03-23T21:10:24.668Z,9.30
2019-03-23T21:12:51.516Z,9.20
2019-03-23T21:15:18.356Z,9.30
2019-03-23T21:17:51.044Z,9.20
2019-03-23T21:20:13.883Z,9.10
2019-03-23T21:22:40.727Z,9.00
2019-03-23T21:25:08.799Z,8.90
2019-03-23T21:27:35.642Z,8.90
2019-03-23T21:30:04.635Z,8.90
2019-03-23T21:32:31.786Z,8.90
2019-03-23T21:34:58.630Z,8.80
2019-03-23T21:37:25.486Z,8.80
2019-03-23T21:39:52.316Z,8.80
2019-03-23T21:42:19.160Z,8.80
2019-03-23T21:44:46.003Z,8.70
2019-03-23T21:47:13.461Z,8.70
2019-03-23T21:49:40.304Z,8.60
2019-03-23T21:52:07.133Z,8.50
2019-03-23T21:54:33.991Z,8.50
2019-03-23T21:57:00.837Z,8.40
2019-03-23T21:59:27.679Z,8.40
2019-03-23T22:01:54.624Z,8.40
2019-03-23T22:04:21.672Z,8.30
2019-03-23T22:06:48.521Z,8.30
2019-03-23T22:09:15.666Z,8.30
2019-03-23T22:11:42.509Z,8.30
2019-03-23T22:14:09.353Z,8.30
2019-03-23T22:16:36.199Z,8.20
2019-03-23T22:19:03.045Z,8.20
2019-03-23T22:21:30.194Z,8.20
2019-03-23T22:23:57.340Z,8.10
2019-03-23T22:26:24.185Z,8.10
2019-03-23T22:28:51.034Z,8.00
2019-03-23T22:31:17.871Z,8.00
2019-03-23T22:33:44.754Z,7.90
2019-03-23T22:36:11.559Z,7.90
2019-03-23T22:38:38.401Z,7.90
2019-03-23T22:41:05.248Z,7.90
2019-03-23T22:43:32.089Z,7.90
2019-03-23T22:45:58.934Z,7.90
2019-03-23T22:48:25.775Z,7.80
2019-03-23T22:50:52.618Z,7.80
2019-03-23T22:53:19.461Z,7.80
2019-03-23T22:55:46.305Z,7.80
2019-03-23T22:58:13.149Z,7.80
2019-03-23T23:00:43.681Z,7.70
2019-03-23T23:03:13.756Z,7.60
2019-03-23T23:05:40.747Z,7.60
2019-03-23T23:08:07.589Z,7.60
2019-03-23T23:10:34.738Z,7.60
2019-03-23T23:13:01.585Z,7.50
2019-03-23T23:15:28.425Z,7.50
2019-03-23T23:17:55.203Z,7.40
2019-03-23T23:20:22.118Z,7.40
2019-03-23T23:22:48.955Z,7.40
2019-03-23T23:25:15.800Z,7.30
2019-03-23T23:27:42.644Z,7.10
2019-03-23T23:30:10.974Z,7.10
2019-03-23T23:32:37.865Z,7.00
2019-03-23T23:35:07.075Z,7.00
2019-03-23T23:37:34.010Z,6.90
2019-03-23T23:40:00.547Z,6.90
2019-03-23T23:42:27.083Z,6.90
2019-03-23T23:44:53.660Z,6.90
2019-03-23T23:47:20.154Z,6.90
2019-03-23T23:49:46.731Z,6.90
2019-03-23T23:52:13.535Z,6.80
2019-03-23T23:54:40.070Z,6.80
2019-03-23T23:57:06.607Z,6.80
2019-03-23T23:59:33.452Z,6.80
